sensor_id;sensor_type;location;lat;lon;timestamp;P1;durP1;ratioP1;P2;durP2;ratioP2
57341;SDS011;43175;51.002;18.316;2024-03-08T00:02:00;56.80;;;26.70;;
57341;SDS011;43175;51.002;18.316;2024-03-08T00:04:25;58.20;;;26.80;;
57341;SDS011;43175;51.002;18.316;2024-03-08T00:06:50;54.70;;;26.00;;
57341;SDS011;43175;51.002;18.316;2024-03-08T00:09:16;53.80;;;26.30;;
57341;SDS011;43175;51.002;18.316;2024-03-08T00:11:41;52.40;;;25.70;;
57341;SDS011;43175;51.002;18.316;2024-03-08T00:14:07;55.20;;;25.60;;
57341;SDS011;43175;51.002;18.316;2024-03-08T00:16:33;51.00;;;25.60;;
57341;SDS011;43175;51.002;18.316;2024-03-08T00:18:59;53.70;;;26.30;;
57341;SDS011;43175;51.002;18.316;2024-03-08T00:21:24;55.60;;;27.20;;
57341;SDS011;43175;51.002;18.316;2024-03-08T00:23:49;58.90;;;30.30;;
57341;SDS011;43175;51.002;18.316;2024-03-08T00:26:15;58.50;;;29.20;;
57341;SDS011;43175;51.002;18.316;2024-03-08T00:28:40;65.80;;;30.30;;
57341;SDS011;43175;51.002;18.316;2024-03-08T00:31:06;70.80;;;31.90;;
57341;SDS011;43175;51.002;18.316;2024-03-08T00:33:32;55.00;;;30.10;;
57341;SDS011;43175;51.002;18.316;2024-03-08T00:35:57;60.00;;;28.90;;
57341;SDS011;43175;51.002;18.316;2024-03-08T00:38:23;63.10;;;31.40;;
57341;SDS011;43175;51.002;18.316;2024-03-08T00:40:49;73.60;;;34.00;;
57341;SDS011;43175;51.002;18.316;2024-03-08T00:43:14;61.10;;;29.30;;
57341;SDS011;43175;51.002;18.316;2024-03-08T00:45:41;63.70;;;29.30;;
57341;SDS011;43175;51.002;18.316;2024-03-08T00:48:08;56.20;;;28.30;;
57341;SDS011;43175;51.002;18.316;2024-03-08T00:50:33;59.40;;;29.30;;
57341;SDS011;43175;51.002;18.316;2024-03-08T00:52:59;55.80;;;27.80;;
57341;SDS011;43175;51.002;18.316;2024-03-08T00:55:25;59.20;;;29.30;;
57341;SDS011;43175;51.002;18.316;2024-03-08T00:57:51;54.00;;;26.40;;
57341;SDS011;43175;51.002;18.316;2024-03-08T01:00:19;53.80;;;26.50;;
57341;SDS011;43175;51.002;18.316;2024-03-08T01:02:46;50.60;;;25.10;;
57341;SDS011;43175;51.002;18.316;2024-03-08T01:05:13;53.30;;;25.60;;
57341;SDS011;43175;51.002;18.316;2024-03-08T01:07:38;56.30;;;27.50;;
57341;SDS011;43175;51.002;18.316;2024-03-08T01:10:04;56.90;;;27.30;;
57341;SDS011;43175;51.002;18.316;2024-03-08T01:12:34;54.80;;;27.40;;
57341;SDS011;43175;51.002;18.316;2024-03-08T01:15:00;57.00;;;28.30;;
57341;SDS011;43175;51.002;18.316;2024-03-08T01:17:25;65.00;;;32.60;;
57341;SDS011;43175;51.002;18.316;2024-03-08T01:19:52;57.80;;;27.80;;
57341;SDS011;43175;51.002;18.316;2024-03-08T01:22:18;52.90;;;26.90;;
57341;SDS011;43175;51.002;18.316;2024-03-08T01:24:44;54.20;;;26.20;;
57341;SDS011;43175;51.002;18.316;2024-03-08T01:27:09;55.60;;;27.00;;
57341;SDS011;43175;51.002;18.316;2024-03-08T01:29:35;51.90;;;24.90;;
57341;SDS011;43175;51.002;18.316;2024-03-08T01:32:00;50.90;;;25.10;;
57341;SDS011;43175;51.002;18.316;2024-03-08T01:34:27;54.00;;;26.20;;
57341;SDS011;43175;51.002;18.316;2024-03-08T01:36:54;57.30;;;25.70;;
57341;SDS011;43175;51.002;18.316;2024-03-08T01:39:21;53.60;;;25.90;;
57341;SDS011;43175;51.002;18.316;2024-03-08T01:41:47;53.00;;;25.90;;
57341;SDS011;43175;51.002;18.316;2024-03-08T01:44:13;52.40;;;25.90;;
57341;SDS011;43175;51.002;18.316;2024-03-08T01:46:46;50.30;;;25.50;;
57341;SDS011;43175;51.002;18.316;2024-03-08T01:49:11;54.50;;;26.40;;
57341;SDS011;43175;51.002;18.316;2024-03-08T01:51:38;47.40;;;24.10;;
57341;SDS011;43175;51.002;18.316;2024-03-08T01:54:05;50.90;;;25.50;;
57341;SDS011;43175;51.002;18.316;2024-03-08T01:56:31;52.30;;;25.80;;
57341;SDS011;43175;51.002;18.316;2024-03-08T01:58:57;53.90;;;25.30;;
57341;SDS011;43175;51.002;18.316;2024-03-08T02:01:22;51.90;;;24.00;;
57341;SDS011;43175;51.002;18.316;2024-03-08T02:03:49;48.30;;;24.20;;
57341;SDS011;43175;51.002;18.316;2024-03-08T02:06:14;50.70;;;24.70;;
57341;SDS011;43175;51.002;18.316;2024-03-08T02:08:42;52.70;;;24.40;;
57341;SDS011;43175;51.002;18.316;2024-03-08T02:11:08;50.70;;;24.70;;
57341;SDS011;43175;51.002;18.316;2024-03-08T02:13:34;48.00;;;23.80;;
57341;SDS011;43175;51.002;18.316;2024-03-08T02:16:00;50.90;;;24.90;;
57341;SDS011;43175;51.002;18.316;2024-03-08T02:18:25;58.10;;;25.00;;
57341;SDS011;43175;51.002;18.316;2024-03-08T02:20:51;53.30;;;25.20;;
57341;SDS011;43175;51.002;18.316;2024-03-08T02:23:18;54.50;;;26.20;;
57341;SDS011;43175;51.002;18.316;2024-03-08T02:25:43;52.40;;;24.80;;
57341;SDS011;43175;51.002;18.316;2024-03-08T02:28:10;52.60;;;25.10;;
57341;SDS011;43175;51.002;18.316;2024-03-08T02:30:36;55.90;;;25.90;;
57341;SDS011;43175;51.002;18.316;2024-03-08T02:33:02;54.10;;;26.50;;
57341;SDS011;43175;51.002;18.316;2024-03-08T02:35:27;58.00;;;28.00;;
57341;SDS011;43175;51.002;18.316;2024-03-08T02:37:53;55.10;;;26.50;;
57341;SDS011;43175;51.002;18.316;2024-03-08T02:40:18;56.20;;;26.60;;
57341;SDS011;43175;51.002;18.316;2024-03-08T02:42:43;57.30;;;27.90;;
57341;SDS011;43175;51.002;18.316;2024-03-08T02:45:09;53.30;;;26.30;;
57341;SDS011;43175;51.002;18.316;2024-03-08T02:47:37;53.20;;;26.00;;
57341;SDS011;43175;51.002;18.316;2024-03-08T02:50:02;53.50;;;25.20;;
57341;SDS011;43175;51.002;18.316;2024-03-08T02:52:28;52.10;;;26.00;;
57341;SDS011;43175;51.002;18.316;2024-03-08T02:54:54;54.00;;;26.10;;
57341;SDS011;43175;51.002;18.316;2024-03-08T02:57:19;59.30;;;27.90;;
57341;SDS011;43175;51.002;18.316;2024-03-08T02:59:45;57.80;;;27.60;;
57341;SDS011;43175;51.002;18.316;2024-03-08T03:02:11;57.10;;;27.50;;
57341;SDS011;43175;51.002;18.316;2024-03-08T03:04:39;59.00;;;27.60;;
57341;SDS011;43175;51.002;18.316;2024-03-08T03:07:04;60.70;;;28.00;;
57341;SDS011;43175;51.002;18.316;2024-03-08T03:09:30;55.30;;;25.30;;
57341;SDS011;43175;51.002;18.316;2024-03-08T03:11:58;55.90;;;26.50;;
57341;SDS011;43175;51.002;18.316;2024-03-08T03:14:24;56.90;;;28.70;;
57341;SDS011;43175;51.002;18.316;2024-03-08T03:16:49;57.40;;;28.00;;
57341;SDS011;43175;51.002;18.316;2024-03-08T03:19:15;58.90;;;27.90;;
57341;SDS011;43175;51.002;18.316;2024-03-08T03:21:41;57.80;;;27.80;;
57341;SDS011;43175;51.002;18.316;2024-03-08T03:24:08;53.70;;;25.80;;
57341;SDS011;43175;51.002;18.316;2024-03-08T03:26:38;56.20;;;25.80;;
57341;SDS011;43175;51.002;18.316;2024-03-08T03:29:06;57.60;;;27.60;;
57341;SDS011;43175;51.002;18.316;2024-03-08T03:31:33;58.70;;;28.20;;
57341;SDS011;43175;51.002;18.316;2024-03-08T03:33:59;56.00;;;27.10;;
57341;SDS011;43175;51.002;18.316;2024-03-08T03:36:27;55.80;;;26.10;;
57341;SDS011;43175;51.002;18.316;2024-03-08T03:38:56;53.80;;;26.00;;
57341;SDS011;43175;51.002;18.316;2024-03-08T03:41:31;53.80;;;26.40;;
57341;SDS011;43175;51.002;18.316;2024-03-08T03:43:56;61.70;;;28.10;;
57341;SDS011;43175;51.002;18.316;2024-03-08T03:46:22;59.30;;;26.90;;
57341;SDS011;43175;51.002;18.316;2024-03-08T03:48:48;62.30;;;27.50;;
57341;SDS011;43175;51.002;18.316;2024-03-08T03:51:13;60.70;;;27.60;;
57341;SDS011;43175;51.002;18.316;2024-03-08T03:53:40;59.70;;;26.40;;
57341;SDS011;43175;51.002;18.316;2024-03-08T03:56:07;58.50;;;28.20;;
57341;SDS011;43175;51.002;18.316;2024-03-08T03:58:32;59.10;;;28.30;;
57341;SDS011;43175;51.002;18.316;2024-03-08T04:00:58;59.80;;;28.80;;
57341;SDS011;43175;51.002;18.316;2024-03-08T04:03:24;60.00;;;28.50;;
57341;SDS011;43175;51.002;18.316;2024-03-08T04:05:49;59.60;;;27.50;;
57341;SDS011;43175;51.002;18.316;2024-03-08T04:08:15;57.80;;;27.70;;
57341;SDS011;43175;51.002;18.316;2024-03-08T04:10:42;60.10;;;27.60;;
57341;SDS011;43175;51.002;18.316;2024-03-08T04:13:08;64.90;;;29.70;;
57341;SDS011;43175;51.002;18.316;2024-03-08T04:15:34;61.60;;;28.70;;
57341;SDS011;43175;51.002;18.316;2024-03-08T04:18:00;61.20;;;28.60;;
57341;SDS011;43175;51.002;18.316;2024-03-08T04:20:26;60.20;;;27.50;;
57341;SDS011;43175;51.002;18.316;2024-03-08T04:22:51;62.00;;;27.00;;
57341;SDS011;43175;51.002;18.316;2024-03-08T04:25:17;64.70;;;30.30;;
57341;SDS011;43175;51.002;18.316;2024-03-08T04:27:42;61.00;;;27.30;;
57341;SDS011;43175;51.002;18.316;2024-03-08T04:30:10;70.90;;;31.80;;
57341;SDS011;43175;51.002;18.316;2024-03-08T04:32:35;65.70;;;29.90;;
57341;SDS011;43175;51.002;18.316;2024-03-08T04:35:01;65.30;;;32.60;;
57341;SDS011;43175;51.002;18.316;2024-03-08T04:37:27;63.60;;;29.70;;
57341;SDS011;43175;51.002;18.316;2024-03-08T04:39:55;58.20;;;27.50;;
57341;SDS011;43175;51.002;18.316;2024-03-08T04:42:21;66.10;;;31.00;;
57341;SDS011;43175;51.002;18.316;2024-03-08T04:44:47;65.90;;;29.20;;
57341;SDS011;43175;51.002;18.316;2024-03-08T04:47:12;72.50;;;34.60;;
57341;SDS011;43175;51.002;18.316;2024-03-08T04:49:37;101.70;;;42.80;;
57341;SDS011;43175;51.002;18.316;2024-03-08T04:52:03;85.10;;;36.70;;
57341;SDS011;43175;51.002;18.316;2024-03-08T04:54:29;94.80;;;41.10;;
57341;SDS011;43175;51.002;18.316;2024-03-08T04:56:54;91.70;;;42.10;;
57341;SDS011;43175;51.002;18.316;2024-03-08T04:59:20;85.40;;;39.00;;
57341;SDS011;43175;51.002;18.316;2024-03-08T05:01:46;91.60;;;41.60;;
57341;SDS011;43175;51.002;18.316;2024-03-08T05:04:13;78.60;;;37.60;;
57341;SDS011;43175;51.002;18.316;2024-03-08T05:06:38;76.30;;;36.20;;
57341;SDS011;43175;51.002;18.316;2024-03-08T05:09:03;70.60;;;33.10;;
57341;SDS011;43175;51.002;18.316;2024-03-08T05:11:42;70.10;;;32.20;;
57341;SDS011;43175;51.002;18.316;2024-03-08T05:14:09;68.20;;;31.00;;
57341;SDS011;43175;51.002;18.316;2024-03-08T05:16:35;63.10;;;31.40;;
57341;SDS011;43175;51.002;18.316;2024-03-08T05:19:01;64.10;;;29.60;;
57341;SDS011;43175;51.002;18.316;2024-03-08T05:21:26;59.30;;;29.20;;
57341;SDS011;43175;51.002;18.316;2024-03-08T05:23:52;55.70;;;27.00;;
57341;SDS011;43175;51.002;18.316;2024-03-08T05:26:18;59.70;;;28.20;;
57341;SDS011;43175;51.002;18.316;2024-03-08T05:28:43;56.90;;;27.70;;
57341;SDS011;43175;51.002;18.316;2024-03-08T05:31:08;56.40;;;26.60;;
57341;SDS011;43175;51.002;18.316;2024-03-08T05:33:34;58.30;;;26.60;;
57341;SDS011;43175;51.002;18.316;2024-03-08T05:36:00;57.00;;;26.90;;
57341;SDS011;43175;51.002;18.316;2024-03-08T05:38:27;54.90;;;26.50;;
57341;SDS011;43175;51.002;18.316;2024-03-08T05:40:53;55.00;;;26.50;;
57341;SDS011;43175;51.002;18.316;2024-03-08T05:43:19;55.40;;;27.00;;
57341;SDS011;43175;51.002;18.316;2024-03-08T05:45:45;56.90;;;28.80;;
57341;SDS011;43175;51.002;18.316;2024-03-08T05:48:11;53.10;;;26.20;;
57341;SDS011;43175;51.002;18.316;2024-03-08T05:50:38;56.80;;;27.90;;
57341;SDS011;43175;51.002;18.316;2024-03-08T05:53:04;56.90;;;27.80;;
57341;SDS011;43175;51.002;18.316;2024-03-08T05:55:32;63.00;;;28.30;;
57341;SDS011;43175;51.002;18.316;2024-03-08T05:58:03;66.80;;;30.40;;
57341;SDS011;43175;51.002;18.316;2024-03-08T06:00:28;71.90;;;33.30;;
57341;SDS011;43175;51.002;18.316;2024-03-08T06:02:53;65.80;;;32.50;;
57341;SDS011;43175;51.002;18.316;2024-03-08T06:05:19;81.50;;;38.60;;
57341;SDS011;43175;51.002;18.316;2024-03-08T06:07:44;73.60;;;35.60;;
57341;SDS011;43175;51.002;18.316;2024-03-08T06:10:10;61.60;;;31.00;;
57341;SDS011;43175;51.002;18.316;2024-03-08T06:12:36;57.90;;;28.10;;
57341;SDS011;43175;51.002;18.316;2024-03-08T06:15:09;55.90;;;28.20;;
57341;SDS011;43175;51.002;18.316;2024-03-08T06:17:35;62.30;;;28.40;;
57341;SDS011;43175;51.002;18.316;2024-03-08T06:20:01;58.00;;;28.90;;
57341;SDS011;43175;51.002;18.316;2024-03-08T06:22:27;62.30;;;27.70;;
57341;SDS011;43175;51.002;18.316;2024-03-08T06:24:53;60.90;;;28.90;;
57341;SDS011;43175;51.002;18.316;2024-03-08T06:27:19;61.20;;;29.00;;
57341;SDS011;43175;51.002;18.316;2024-03-08T06:29:45;65.50;;;31.10;;
57341;SDS011;43175;51.002;18.316;2024-03-08T06:32:10;65.30;;;29.50;;
57341;SDS011;43175;51.002;18.316;2024-03-08T06:34:35;63.70;;;30.90;;
57341;SDS011;43175;51.002;18.316;2024-03-08T06:37:01;71.90;;;33.80;;
57341;SDS011;43175;51.002;18.316;2024-03-08T06:39:27;89.10;;;40.40;;
57341;SDS011;43175;51.002;18.316;2024-03-08T06:41:54;166.20;;;77.70;;
57341;SDS011;43175;51.002;18.316;2024-03-08T06:44:19;242.90;;;113.60;;
57341;SDS011;43175;51.002;18.316;2024-03-08T06:46:47;158.60;;;79.40;;
57341;SDS011;43175;51.002;18.316;2024-03-08T06:49:13;116.70;;;51.30;;
57341;SDS011;43175;51.002;18.316;2024-03-08T06:51:40;98.40;;;42.60;;
57341;SDS011;43175;51.002;18.316;2024-03-08T06:54:06;86.00;;;40.50;;
57341;SDS011;43175;51.002;18.316;2024-03-08T06:56:35;72.40;;;36.90;;
57341;SDS011;43175;51.002;18.316;2024-03-08T06:59:00;64.10;;;31.70;;
57341;SDS011;43175;51.002;18.316;2024-03-08T07:01:28;64.40;;;30.50;;
57341;SDS011;43175;51.002;18.316;2024-03-08T07:03:57;72.10;;;31.60;;
57341;SDS011;43175;51.002;18.316;2024-03-08T07:06:23;80.40;;;35.30;;
57341;SDS011;43175;51.002;18.316;2024-03-08T07:08:48;72.60;;;34.70;;
57341;SDS011;43175;51.002;18.316;2024-03-08T07:11:14;70.70;;;34.50;;
57341;SDS011;43175;51.002;18.316;2024-03-08T07:13:44;64.50;;;31.00;;
57341;SDS011;43175;51.002;18.316;2024-03-08T07:16:10;58.40;;;29.60;;
57341;SDS011;43175;51.002;18.316;2024-03-08T07:18:37;59.60;;;27.90;;
57341;SDS011;43175;51.002;18.316;2024-03-08T07:21:05;54.70;;;27.90;;
57341;SDS011;43175;51.002;18.316;2024-03-08T07:23:30;60.50;;;30.00;;
57341;SDS011;43175;51.002;18.316;2024-03-08T07:26:15;56.10;;;28.80;;
57341;SDS011;43175;51.002;18.316;2024-03-08T07:28:40;56.30;;;27.40;;
57341;SDS011;43175;51.002;18.316;2024-03-08T07:31:06;58.10;;;28.00;;
57341;SDS011;43175;51.002;18.316;2024-03-08T07:33:37;58.40;;;28.00;;
57341;SDS011;43175;51.002;18.316;2024-03-08T07:36:03;51.50;;;26.60;;
57341;SDS011;43175;51.002;18.316;2024-03-08T07:38:29;56.70;;;27.80;;
57341;SDS011;43175;51.002;18.316;2024-03-08T07:40:54;52.00;;;27.30;;
57341;SDS011;43175;51.002;18.316;2024-03-08T07:43:22;49.30;;;26.70;;
57341;SDS011;43175;51.002;18.316;2024-03-08T07:45:47;48.10;;;24.50;;
57341;SDS011;43175;51.002;18.316;2024-03-08T07:48:13;50.60;;;25.40;;
57341;SDS011;43175;51.002;18.316;2024-03-08T07:50:39;51.70;;;24.60;;
57341;SDS011;43175;51.002;18.316;2024-03-08T07:53:05;47.90;;;25.30;;
57341;SDS011;43175;51.002;18.316;2024-03-08T07:55:32;49.80;;;26.30;;
57341;SDS011;43175;51.002;18.316;2024-03-08T07:57:58;46.80;;;24.00;;
57341;SDS011;43175;51.002;18.316;2024-03-08T08:00:23;44.70;;;22.70;;
57341;SDS011;43175;51.002;18.316;2024-03-08T08:02:49;46.80;;;23.70;;
57341;SDS011;43175;51.002;18.316;2024-03-08T08:05:15;45.30;;;23.20;;
57341;SDS011;43175;51.002;18.316;2024-03-08T08:07:44;42.70;;;23.10;;
57341;SDS011;43175;51.002;18.316;2024-03-08T08:10:09;45.40;;;23.30;;
57341;SDS011;43175;51.002;18.316;2024-03-08T08:15:07;44.90;;;22.00;;
57341;SDS011;43175;51.002;18.316;2024-03-08T08:17:33;43.30;;;21.40;;
57341;SDS011;43175;51.002;18.316;2024-03-08T08:20:00;42.00;;;20.20;;
57341;SDS011;43175;51.002;18.316;2024-03-08T08:22:25;46.40;;;23.70;;
57341;SDS011;43175;51.002;18.316;2024-03-08T08:24:51;44.60;;;24.00;;
57341;SDS011;43175;51.002;18.316;2024-03-08T08:27:17;47.30;;;22.70;;
57341;SDS011;43175;51.002;18.316;2024-03-08T08:29:43;43.40;;;22.40;;
57341;SDS011;43175;51.002;18.316;2024-03-08T08:32:11;37.60;;;21.40;;
57341;SDS011;43175;51.002;18.316;2024-03-08T08:34:36;41.70;;;22.00;;
57341;SDS011;43175;51.002;18.316;2024-03-08T08:37:02;44.70;;;22.20;;
57341;SDS011;43175;51.002;18.316;2024-03-08T08:39:27;38.50;;;21.10;;
57341;SDS011;43175;51.002;18.316;2024-03-08T08:41:53;38.90;;;20.70;;
57341;SDS011;43175;51.002;18.316;2024-03-08T08:44:18;45.00;;;21.80;;
57341;SDS011;43175;51.002;18.316;2024-03-08T08:46:43;45.40;;;22.60;;
57341;SDS011;43175;51.002;18.316;2024-03-08T08:49:09;44.50;;;22.70;;
57341;SDS011;43175;51.002;18.316;2024-03-08T08:51:36;44.00;;;24.00;;
57341;SDS011;43175;51.002;18.316;2024-03-08T08:54:02;40.80;;;22.40;;
57341;SDS011;43175;51.002;18.316;2024-03-08T08:56:28;43.40;;;23.00;;
57341;SDS011;43175;51.002;18.316;2024-03-08T08:58:54;41.00;;;21.50;;
57341;SDS011;43175;51.002;18.316;2024-03-08T09:01:20;39.40;;;22.10;;
57341;SDS011;43175;51.002;18.316;2024-03-08T09:03:45;40.60;;;22.30;;
57341;SDS011;43175;51.002;18.316;2024-03-08T09:06:15;42.80;;;21.40;;
57341;SDS011;43175;51.002;18.316;2024-03-08T09:08:41;46.20;;;23.60;;
57341;SDS011;43175;51.002;18.316;2024-03-08T09:11:07;45.10;;;23.70;;
57341;SDS011;43175;51.002;18.316;2024-03-08T09:13:32;45.90;;;21.70;;
57341;SDS011;43175;51.002;18.316;2024-03-08T09:16:00;42.20;;;22.10;;
57341;SDS011;43175;51.002;18.316;2024-03-08T09:18:27;43.60;;;21.90;;
57341;SDS011;43175;51.002;18.316;2024-03-08T09:20:53;39.50;;;22.00;;
57341;SDS011;43175;51.002;18.316;2024-03-08T09:23:19;43.90;;;22.00;;
57341;SDS011;43175;51.002;18.316;2024-03-08T09:25:45;44.10;;;22.30;;
57341;SDS011;43175;51.002;18.316;2024-03-08T09:28:11;41.10;;;23.00;;
57341;SDS011;43175;51.002;18.316;2024-03-08T09:30:38;39.70;;;20.90;;
57341;SDS011;43175;51.002;18.316;2024-03-08T09:33:04;40.70;;;21.30;;
57341;SDS011;43175;51.002;18.316;2024-03-08T09:35:29;40.00;;;21.10;;
57341;SDS011;43175;51.002;18.316;2024-03-08T09:37:55;43.50;;;21.40;;
57341;SDS011;43175;51.002;18.316;2024-03-08T09:40:21;37.60;;;20.70;;
57341;SDS011;43175;51.002;18.316;2024-03-08T09:42:49;40.30;;;20.50;;
57341;SDS011;43175;51.002;18.316;2024-03-08T09:45:15;41.00;;;21.70;;
57341;SDS011;43175;51.002;18.316;2024-03-08T09:47:42;39.40;;;20.90;;
57341;SDS011;43175;51.002;18.316;2024-03-08T09:50:08;38.50;;;21.60;;
57341;SDS011;43175;51.002;18.316;2024-03-08T09:52:35;43.20;;;21.70;;
57341;SDS011;43175;51.002;18.316;2024-03-08T09:55:04;39.60;;;21.90;;
57341;SDS011;43175;51.002;18.316;2024-03-08T09:57:30;41.70;;;21.10;;
57341;SDS011;43175;51.002;18.316;2024-03-08T09:59:55;39.00;;;20.50;;
57341;SDS011;43175;51.002;18.316;2024-03-08T10:02:21;34.00;;;19.30;;
57341;SDS011;43175;51.002;18.316;2024-03-08T10:04:47;38.00;;;20.30;;
57341;SDS011;43175;51.002;18.316;2024-03-08T10:07:12;39.90;;;20.80;;
57341;SDS011;43175;51.002;18.316;2024-03-08T10:09:38;37.60;;;19.60;;
57341;SDS011;43175;51.002;18.316;2024-03-08T10:12:04;37.50;;;19.90;;
57341;SDS011;43175;51.002;18.316;2024-03-08T10:14:30;40.90;;;21.70;;
57341;SDS011;43175;51.002;18.316;2024-03-08T10:16:59;38.70;;;20.70;;
57341;SDS011;43175;51.002;18.316;2024-03-08T10:19:26;38.30;;;20.80;;
57341;SDS011;43175;51.002;18.316;2024-03-08T10:21:53;41.80;;;20.90;;
57341;SDS011;43175;51.002;18.316;2024-03-08T10:24:18;34.60;;;19.20;;
57341;SDS011;43175;51.002;18.316;2024-03-08T10:26:44;39.30;;;22.10;;
57341;SDS011;43175;51.002;18.316;2024-03-08T10:29:10;40.00;;;21.00;;
57341;SDS011;43175;51.002;18.316;2024-03-08T10:31:35;43.40;;;23.00;;
57341;SDS011;43175;51.002;18.316;2024-03-08T10:34:01;39.70;;;20.00;;
57341;SDS011;43175;51.002;18.316;2024-03-08T10:36:28;37.50;;;21.00;;
57341;SDS011;43175;51.002;18.316;2024-03-08T10:38:54;43.10;;;24.00;;
57341;SDS011;43175;51.002;18.316;2024-03-08T10:41:23;38.90;;;21.00;;
57341;SDS011;43175;51.002;18.316;2024-03-08T10:46:32;37.50;;;21.10;;
57341;SDS011;43175;51.002;18.316;2024-03-08T10:49:03;36.50;;;19.80;;
57341;SDS011;43175;51.002;18.316;2024-03-08T10:51:31;41.80;;;22.60;;
57341;SDS011;43175;51.002;18.316;2024-03-08T10:53:57;40.00;;;22.20;;
57341;SDS011;43175;51.002;18.316;2024-03-08T10:56:24;42.20;;;23.60;;
57341;SDS011;43175;51.002;18.316;2024-03-08T10:58:53;37.40;;;21.70;;
57341;SDS011;43175;51.002;18.316;2024-03-08T11:01:19;40.40;;;22.70;;
57341;SDS011;43175;51.002;18.316;2024-03-08T11:03:44;39.10;;;21.60;;
57341;SDS011;43175;51.002;18.316;2024-03-08T11:06:13;38.10;;;19.00;;
57341;SDS011;43175;51.002;18.316;2024-03-08T11:08:40;37.30;;;19.90;;
57341;SDS011;43175;51.002;18.316;2024-03-08T11:11:05;35.70;;;20.50;;
57341;SDS011;43175;51.002;18.316;2024-03-08T11:13:48;37.80;;;20.50;;
57341;SDS011;43175;51.002;18.316;2024-03-08T11:18:54;33.50;;;18.60;;
57341;SDS011;43175;51.002;18.316;2024-03-08T11:21:22;38.60;;;21.40;;
57341;SDS011;43175;51.002;18.316;2024-03-08T11:24:01;41.60;;;23.20;;
57341;SDS011;43175;51.002;18.316;2024-03-08T11:26:27;38.50;;;20.90;;
57341;SDS011;43175;51.002;18.316;2024-03-08T11:28:53;41.60;;;21.90;;
57341;SDS011;43175;51.002;18.316;2024-03-08T11:33:46;32.60;;;17.70;;
57341;SDS011;43175;51.002;18.316;2024-03-08T11:36:19;36.40;;;19.40;;
57341;SDS011;43175;51.002;18.316;2024-03-08T11:38:48;42.60;;;22.90;;
57341;SDS011;43175;51.002;18.316;2024-03-08T11:41:16;36.40;;;19.90;;
57341;SDS011;43175;51.002;18.316;2024-03-08T11:43:43;37.30;;;19.90;;
57341;SDS011;43175;51.002;18.316;2024-03-08T11:46:10;35.60;;;20.10;;
57341;SDS011;43175;51.002;18.316;2024-03-08T11:48:38;39.90;;;22.00;;
57341;SDS011;43175;51.002;18.316;2024-03-08T11:51:04;37.20;;;20.60;;
57341;SDS011;43175;51.002;18.316;2024-03-08T11:53:30;38.40;;;19.40;;
57341;SDS011;43175;51.002;18.316;2024-03-08T11:56:10;36.00;;;20.60;;
57341;SDS011;43175;51.002;18.316;2024-03-08T11:58:36;38.40;;;21.10;;
57341;SDS011;43175;51.002;18.316;2024-03-08T12:01:03;35.30;;;19.90;;
57341;SDS011;43175;51.002;18.316;2024-03-08T12:03:30;33.20;;;18.40;;
57341;SDS011;43175;51.002;18.316;2024-03-08T12:05:59;37.70;;;20.30;;
57341;SDS011;43175;51.002;18.316;2024-03-08T12:08:25;37.50;;;21.90;;
57341;SDS011;43175;51.002;18.316;2024-03-08T12:10:56;35.20;;;18.80;;
57341;SDS011;43175;51.002;18.316;2024-03-08T12:13:28;31.60;;;18.20;;
57341;SDS011;43175;51.002;18.316;2024-03-08T12:15:56;38.00;;;20.10;;
57341;SDS011;43175;51.002;18.316;2024-03-08T12:18:22;31.80;;;17.70;;
57341;SDS011;43175;51.002;18.316;2024-03-08T12:20:48;30.40;;;18.00;;
57341;SDS011;43175;51.002;18.316;2024-03-08T12:23:15;35.10;;;19.30;;
57341;SDS011;43175;51.002;18.316;2024-03-08T12:25:41;31.80;;;17.50;;
57341;SDS011;43175;51.002;18.316;2024-03-08T12:28:11;35.60;;;18.80;;
57341;SDS011;43175;51.002;18.316;2024-03-08T12:30:44;32.60;;;18.30;;
57341;SDS011;43175;51.002;18.316;2024-03-08T12:33:10;33.20;;;18.70;;
57341;SDS011;43175;51.002;18.316;2024-03-08T12:35:38;35.50;;;19.10;;
57341;SDS011;43175;51.002;18.316;2024-03-08T12:38:03;33.30;;;18.10;;
57341;SDS011;43175;51.002;18.316;2024-03-08T12:40:31;31.40;;;17.90;;
57341;SDS011;43175;51.002;18.316;2024-03-08T12:42:57;33.00;;;18.30;;
57341;SDS011;43175;51.002;18.316;2024-03-08T12:45:23;33.90;;;18.40;;
57341;SDS011;43175;51.002;18.316;2024-03-08T12:47:50;35.40;;;18.50;;
57341;SDS011;43175;51.002;18.316;2024-03-08T12:50:15;36.10;;;19.20;;
57341;SDS011;43175;51.002;18.316;2024-03-08T12:52:43;33.80;;;19.70;;
57341;SDS011;43175;51.002;18.316;2024-03-08T12:55:08;33.10;;;19.00;;
57341;SDS011;43175;51.002;18.316;2024-03-08T12:57:34;35.10;;;20.40;;
57341;SDS011;43175;51.002;18.316;2024-03-08T13:00:00;32.60;;;18.70;;
57341;SDS011;43175;51.002;18.316;2024-03-08T13:02:26;33.20;;;19.20;;
57341;SDS011;43175;51.002;18.316;2024-03-08T13:04:52;31.50;;;18.00;;
57341;SDS011;43175;51.002;18.316;2024-03-08T13:07:22;37.80;;;21.10;;
57341;SDS011;43175;51.002;18.316;2024-03-08T13:09:49;36.50;;;19.90;;
57341;SDS011;43175;51.002;18.316;2024-03-08T13:12:14;35.10;;;18.90;;
57341;SDS011;43175;51.002;18.316;2024-03-08T13:14:40;34.10;;;19.40;;
57341;SDS011;43175;51.002;18.316;2024-03-08T13:17:06;41.50;;;24.50;;
57341;SDS011;43175;51.002;18.316;2024-03-08T13:19:36;34.80;;;19.20;;
57341;SDS011;43175;51.002;18.316;2024-03-08T13:22:01;33.80;;;20.00;;
57341;SDS011;43175;51.002;18.316;2024-03-08T13:24:29;34.60;;;21.20;;
57341;SDS011;43175;51.002;18.316;2024-03-08T13:26:55;33.50;;;18.50;;
57341;SDS011;43175;51.002;18.316;2024-03-08T13:29:21;30.90;;;17.90;;
57341;SDS011;43175;51.002;18.316;2024-03-08T13:31:46;31.10;;;18.70;;
57341;SDS011;43175;51.002;18.316;2024-03-08T13:34:17;31.90;;;17.90;;
57341;SDS011;43175;51.002;18.316;2024-03-08T13:36:43;29.80;;;16.60;;
57341;SDS011;43175;51.002;18.316;2024-03-08T13:39:09;31.00;;;18.50;;
57341;SDS011;43175;51.002;18.316;2024-03-08T13:41:46;31.60;;;16.90;;
57341;SDS011;43175;51.002;18.316;2024-03-08T13:44:12;30.30;;;18.40;;
57341;SDS011;43175;51.002;18.316;2024-03-08T13:46:37;33.70;;;20.80;;
57341;SDS011;43175;51.002;18.316;2024-03-08T13:49:03;34.60;;;20.30;;
57341;SDS011;43175;51.002;18.316;2024-03-08T13:51:33;30.60;;;17.30;;
57341;SDS011;43175;51.002;18.316;2024-03-08T13:53:59;31.80;;;18.40;;
57341;SDS011;43175;51.002;18.316;2024-03-08T13:56:26;32.60;;;18.50;;
57341;SDS011;43175;51.002;18.316;2024-03-08T13:58:51;35.90;;;19.40;;
57341;SDS011;43175;51.002;18.316;2024-03-08T14:01:17;30.10;;;16.50;;
57341;SDS011;43175;51.002;18.316;2024-03-08T14:03:42;29.80;;;15.90;;
57341;SDS011;43175;51.002;18.316;2024-03-08T14:06:08;30.20;;;16.50;;
57341;SDS011;43175;51.002;18.316;2024-03-08T14:08:34;28.70;;;15.90;;
57341;SDS011;43175;51.002;18.316;2024-03-08T14:11:04;33.20;;;18.50;;
57341;SDS011;43175;51.002;18.316;2024-03-08T14:13:40;34.80;;;17.90;;
57341;SDS011;43175;51.002;18.316;2024-03-08T14:16:06;27.90;;;16.10;;